sensor_id;sensor_type;location;lat;lon;timestamp;P1;durP1;ratioP1;P2;durP2;ratioP2
71360;SDS011;59166;48.908;1.870;2022-09-03T00:03:49;13.07;;;8.55;;
71360;SDS011;59166;48.908;1.870;2022-09-03T00:08:56;12.90;;;8.23;;
71360;SDS011;59166;48.908;1.870;2022-09-03T00:14:03;12.45;;;7.95;;
71360;SDS011;59166;48.908;1.870;2022-09-03T00:19:08;12.50;;;8.10;;
71360;SDS011;59166;48.908;1.870;2022-09-03T00:24:12;12.40;;;7.97;;
71360;SDS011;59166;48.908;1.870;2022-09-03T00:29:16;12.17;;;7.90;;
71360;SDS011;59166;48.908;1.870;2022-09-03T00:34:22;11.77;;;7.65;;
71360;SDS011;59166;48.908;1.870;2022-09-03T00:39:28;12.00;;;7.72;;
71360;SDS011;59166;48.908;1.870;2022-09-03T00:50:05;12.70;;;7.50;;
71360;SDS011;59166;48.908;1.870;2022-09-03T00:55:17;11.80;;;7.40;;
71360;SDS011;59166;48.908;1.870;2022-09-03T01:00:26;12.20;;;7.38;;
71360;SDS011;59166;48.908;1.870;2022-09-03T01:05:32;11.33;;;7.43;;
71360;SDS011;59166;48.908;1.870;2022-09-03T01:10:43;15.48;;;7.43;;
71360;SDS011;59166;48.908;1.870;2022-09-03T01:15:55;11.50;;;7.15;;
71360;SDS011;59166;48.908;1.870;2022-09-03T01:21:15;11.27;;;6.83;;
71360;SDS011;59166;48.908;1.870;2022-09-03T01:26:34;12.03;;;7.10;;
71360;SDS011;59166;48.908;1.870;2022-09-03T01:32:02;12.88;;;7.53;;
71360;SDS011;59166;48.908;1.870;2022-09-03T01:37:10;12.68;;;7.82;;
71360;SDS011;59166;48.908;1.870;2022-09-03T01:42:18;13.37;;;8.00;;
71360;SDS011;59166;48.908;1.870;2022-09-03T01:47:29;12.23;;;7.65;;
71360;SDS011;59166;48.908;1.870;2022-09-03T01:52:41;12.68;;;7.70;;
71360;SDS011;59166;48.908;1.870;2022-09-03T01:57:47;14.10;;;7.70;;
71360;SDS011;59166;48.908;1.870;2022-09-03T02:02:54;13.90;;;7.82;;
71360;SDS011;59166;48.908;1.870;2022-09-03T02:07:55;13.07;;;7.47;;
71360;SDS011;59166;48.908;1.870;2022-09-03T02:12:59;11.37;;;7.13;;
71360;SDS011;59166;48.908;1.870;2022-09-03T02:18:06;13.30;;;7.73;;
71360;SDS011;59166;48.908;1.870;2022-09-03T02:23:12;11.27;;;7.22;;
71360;SDS011;59166;48.908;1.870;2022-09-03T02:28:13;12.75;;;7.10;;
71360;SDS011;59166;48.908;1.870;2022-09-03T02:33:15;11.90;;;6.83;;
71360;SDS011;59166;48.908;1.870;2022-09-03T02:38:17;12.20;;;6.97;;
71360;SDS011;59166;48.908;1.870;2022-09-03T02:43:20;12.15;;;6.95;;
71360;SDS011;59166;48.908;1.870;2022-09-03T02:48:27;11.93;;;7.03;;
71360;SDS011;59166;48.908;1.870;2022-09-03T02:53:28;12.52;;;6.85;;
71360;SDS011;59166;48.908;1.870;2022-09-03T02:58:29;11.60;;;6.43;;
71360;SDS011;59166;48.908;1.870;2022-09-03T03:03:31;11.73;;;7.13;;
71360;SDS011;59166;48.908;1.870;2022-09-03T03:08:31;12.87;;;6.80;;
71360;SDS011;59166;48.908;1.870;2022-09-03T03:13:32;13.40;;;7.03;;
71360;SDS011;59166;48.908;1.870;2022-09-03T03:18:34;11.93;;;6.53;;
71360;SDS011;59166;48.908;1.870;2022-09-03T03:23:35;10.68;;;6.30;;
71360;SDS011;59166;48.908;1.870;2022-09-03T03:28:37;12.30;;;6.47;;
71360;SDS011;59166;48.908;1.870;2022-09-03T03:33:39;10.47;;;6.37;;
71360;SDS011;59166;48.908;1.870;2022-09-03T03:38:40;10.93;;;6.28;;
71360;SDS011;59166;48.908;1.870;2022-09-03T03:43:42;11.33;;;6.47;;
71360;SDS011;59166;48.908;1.870;2022-09-03T03:48:46;10.90;;;6.30;;
71360;SDS011;59166;48.908;1.870;2022-09-03T03:53:47;11.15;;;6.32;;
71360;SDS011;59166;48.908;1.870;2022-09-03T03:58:47;12.30;;;6.50;;
71360;SDS011;59166;48.908;1.870;2022-09-03T04:03:49;10.80;;;6.47;;
71360;SDS011;59166;48.908;1.870;2022-09-03T04:08:51;12.50;;;6.82;;
71360;SDS011;59166;48.908;1.870;2022-09-03T04:13:51;12.57;;;7.05;;
71360;SDS011;59166;48.908;1.870;2022-09-03T04:18:54;12.37;;;7.03;;
71360;SDS011;59166;48.908;1.870;2022-09-03T04:23:56;10.65;;;6.55;;
71360;SDS011;59166;48.908;1.870;2022-09-03T04:28:57;11.43;;;6.70;;
71360;SDS011;59166;48.908;1.870;2022-09-03T04:34:00;12.20;;;6.87;;
71360;SDS011;59166;48.908;1.870;2022-09-03T04:39:01;11.50;;;6.88;;
71360;SDS011;59166;48.908;1.870;2022-09-03T04:44:02;13.17;;;6.80;;
71360;SDS011;59166;48.908;1.870;2022-09-03T04:49:04;11.77;;;6.80;;
71360;SDS011;59166;48.908;1.870;2022-09-03T04:54:04;12.70;;;6.77;;
71360;SDS011;59166;48.908;1.870;2022-09-03T04:59:05;11.27;;;6.33;;
71360;SDS011;59166;48.908;1.870;2022-09-03T05:04:09;13.13;;;6.73;;
71360;SDS011;59166;48.908;1.870;2022-09-03T05:09:09;12.53;;;6.83;;
71360;SDS011;59166;48.908;1.870;2022-09-03T05:14:10;12.48;;;7.18;;
71360;SDS011;59166;48.908;1.870;2022-09-03T05:19:12;11.63;;;6.90;;
71360;SDS011;59166;48.908;1.870;2022-09-03T05:24:13;11.80;;;6.55;;
71360;SDS011;59166;48.908;1.870;2022-09-03T05:29:13;11.60;;;6.93;;
71360;SDS011;59166;48.908;1.870;2022-09-03T05:34:15;12.60;;;7.37;;
71360;SDS011;59166;48.908;1.870;2022-09-03T05:39:16;12.43;;;7.45;;
71360;SDS011;59166;48.908;1.870;2022-09-03T05:44:16;15.13;;;7.93;;
71360;SDS011;59166;48.908;1.870;2022-09-03T05:49:18;14.32;;;7.47;;
71360;SDS011;59166;48.908;1.870;2022-09-03T05:54:19;12.93;;;7.43;;
71360;SDS011;59166;48.908;1.870;2022-09-03T05:59:20;12.95;;;8.15;;
71360;SDS011;59166;48.908;1.870;2022-09-03T06:04:22;14.30;;;7.53;;
71360;SDS011;59166;48.908;1.870;2022-09-03T06:09:22;14.13;;;7.90;;
71360;SDS011;59166;48.908;1.870;2022-09-03T06:14:23;14.03;;;8.00;;
71360;SDS011;59166;48.908;1.870;2022-09-03T06:19:25;14.47;;;8.23;;
71360;SDS011;59166;48.908;1.870;2022-09-03T06:24:26;13.95;;;8.38;;
71360;SDS011;59166;48.908;1.870;2022-09-03T06:29:26;14.37;;;8.73;;
71360;SDS011;59166;48.908;1.870;2022-09-03T06:34:28;16.33;;;9.13;;
71360;SDS011;59166;48.908;1.870;2022-09-03T06:39:29;15.17;;;9.10;;
71360;SDS011;59166;48.908;1.870;2022-09-03T06:44:29;16.33;;;9.35;;
71360;SDS011;59166;48.908;1.870;2022-09-03T06:49:31;15.50;;;8.97;;
71360;SDS011;59166;48.908;1.870;2022-09-03T06:54:32;15.07;;;9.27;;
71360;SDS011;59166;48.908;1.870;2022-09-03T06:59:33;15.03;;;8.83;;
71360;SDS011;59166;48.908;1.870;2022-09-03T07:04:35;15.93;;;9.27;;
71360;SDS011;59166;48.908;1.870;2022-09-03T07:09:35;16.10;;;8.88;;
71360;SDS011;59166;48.908;1.870;2022-09-03T07:14:36;14.10;;;8.90;;
71360;SDS011;59166;48.908;1.870;2022-09-03T07:19:38;14.20;;;8.23;;
71360;SDS011;59166;48.908;1.870;2022-09-03T07:24:38;12.93;;;7.50;;
71360;SDS011;59166;48.908;1.870;2022-09-03T07:29:39;11.82;;;7.13;;
71360;SDS011;59166;48.908;1.870;2022-09-03T07:34:41;12.27;;;7.20;;
71360;SDS011;59166;48.908;1.870;2022-09-03T07:39:42;11.67;;;6.67;;
71360;SDS011;59166;48.908;1.870;2022-09-03T07:44:42;12.03;;;6.70;;
71360;SDS011;59166;48.908;1.870;2022-09-03T07:49:44;11.93;;;6.63;;
71360;SDS011;59166;48.908;1.870;2022-09-03T07:54:45;10.88;;;6.70;;
71360;SDS011;59166;48.908;1.870;2022-09-03T07:59:46;10.47;;;6.37;;
71360;SDS011;59166;48.908;1.870;2022-09-03T08:04:49;9.80;;;5.53;;
71360;SDS011;59166;48.908;1.870;2022-09-03T08:09:49;9.68;;;5.22;;
71360;SDS011;59166;48.908;1.870;2022-09-03T08:14:50;10.70;;;5.27;;
71360;SDS011;59166;48.908;1.870;2022-09-03T08:19:52;9.83;;;5.37;;
71360;SDS011;59166;48.908;1.870;2022-09-03T08:24:52;9.50;;;4.72;;
71360;SDS011;59166;48.908;1.870;2022-09-03T08:29:53;8.45;;;4.38;;
71360;SDS011;59166;48.908;1.870;2022-09-03T08:34:56;9.13;;;4.07;;
71360;SDS011;59166;48.908;1.870;2022-09-03T08:39:56;8.15;;;4.10;;
71360;SDS011;59166;48.908;1.870;2022-09-03T08:44:58;8.33;;;3.90;;
71360;SDS011;59166;48.908;1.870;2022-09-03T08:50:04;9.50;;;3.60;;
71360;SDS011;59166;48.908;1.870;2022-09-03T08:55:14;8.52;;;3.30;;
71360;SDS011;59166;48.908;1.870;2022-09-03T09:00:19;7.85;;;3.60;;
71360;SDS011;59166;48.908;1.870;2022-09-03T09:05:22;8.90;;;3.70;;
71360;SDS011;59166;48.908;1.870;2022-09-03T09:10:29;7.97;;;3.60;;
71360;SDS011;59166;48.908;1.870;2022-09-03T09:15:38;8.53;;;3.37;;
71360;SDS011;59166;48.908;1.870;2022-09-03T09:20:46;8.27;;;3.20;;
71360;SDS011;59166;48.908;1.870;2022-09-03T09:25:49;7.30;;;2.90;;
71360;SDS011;59166;48.908;1.870;2022-09-03T09:30:50;7.03;;;3.00;;
71360;SDS011;59166;48.908;1.870;2022-09-03T09:35:57;8.40;;;3.20;;
71360;SDS011;59166;48.908;1.870;2022-09-03T09:41:07;8.85;;;3.30;;
71360;SDS011;59166;48.908;1.870;2022-09-03T09:46:11;8.33;;;3.30;;
71360;SDS011;59166;48.908;1.870;2022-09-03T09:51:17;6.97;;;2.80;;
71360;SDS011;59166;48.908;1.870;2022-09-03T09:56:19;7.53;;;3.67;;
71360;SDS011;59166;48.908;1.870;2022-09-03T10:01:21;7.50;;;3.10;;
71360;SDS011;59166;48.908;1.870;2022-09-03T10:06:24;7.60;;;3.50;;
71360;SDS011;59166;48.908;1.870;2022-09-03T10:11:25;9.80;;;3.38;;
71360;SDS011;59166;48.908;1.870;2022-09-03T10:16:27;9.67;;;3.30;;
71360;SDS011;59166;48.908;1.870;2022-09-03T10:21:38;7.75;;;3.67;;
71360;SDS011;59166;48.908;1.870;2022-09-03T10:26:44;7.43;;;3.42;;
71360;SDS011;59166;48.908;1.870;2022-09-03T10:31:47;9.67;;;4.10;;
71360;SDS011;59166;48.908;1.870;2022-09-03T10:36:59;8.85;;;3.50;;
71360;SDS011;59166;48.908;1.870;2022-09-03T10:42:08;7.97;;;3.20;;
71360;SDS011;59166;48.908;1.870;2022-09-03T10:47:31;9.25;;;3.67;;
71360;SDS011;59166;48.908;1.870;2022-09-03T10:53:01;7.53;;;3.60;;
71360;SDS011;59166;48.908;1.870;2022-09-03T10:58:15;8.53;;;3.40;;
71360;SDS011;59166;48.908;1.870;2022-09-03T11:03:45;7.53;;;3.40;;
71360;SDS011;59166;48.908;1.870;2022-09-03T11:08:50;8.15;;;3.42;;
71360;SDS011;59166;48.908;1.870;2022-09-03T11:13:55;6.63;;;3.08;;
71360;SDS011;59166;48.908;1.870;2022-09-03T11:19:03;5.83;;;2.80;;
71360;SDS011;59166;48.908;1.870;2022-09-03T11:24:09;5.93;;;2.80;;
71360;SDS011;59166;48.908;1.870;2022-09-03T11:29:15;6.10;;;2.55;;
71360;SDS011;59166;48.908;1.870;2022-09-03T11:34:26;5.93;;;2.50;;
71360;SDS011;59166;48.908;1.870;2022-09-03T11:39:33;4.97;;;2.33;;
71360;SDS011;59166;48.908;1.870;2022-09-03T11:44:35;5.57;;;2.10;;
71360;SDS011;59166;48.908;1.870;2022-09-03T11:49:42;6.20;;;2.30;;
71360;SDS011;59166;48.908;1.870;2022-09-03T11:54:46;5.45;;;2.30;;
71360;SDS011;59166;48.908;1.870;2022-09-03T11:59:46;4.88;;;2.10;;
71360;SDS011;59166;48.908;1.870;2022-09-03T12:04:49;5.17;;;2.10;;
71360;SDS011;59166;48.908;1.870;2022-09-03T12:10:13;4.80;;;2.08;;
71360;SDS011;59166;48.908;1.870;2022-09-03T12:15:30;5.75;;;1.90;;
71360;SDS011;59166;48.908;1.870;2022-09-03T12:20:41;5.03;;;2.10;;
71360;SDS011;59166;48.908;1.870;2022-09-03T12:25:43;5.22;;;2.00;;
71360;SDS011;59166;48.908;1.870;2022-09-03T12:30:44;4.85;;;2.08;;
71360;SDS011;59166;48.908;1.870;2022-09-03T12:35:54;4.33;;;1.90;;
71360;SDS011;59166;48.908;1.870;2022-09-03T12:40:56;4.57;;;1.83;;
71360;SDS011;59166;48.908;1.870;2022-09-03T12:45:57;4.63;;;1.60;;
71360;SDS011;59166;48.908;1.870;2022-09-03T12:51:00;3.70;;;1.10;;
71360;SDS011;59166;48.908;1.870;2022-09-03T12:56:03;2.70;;;1.20;;
71360;SDS011;59166;48.908;1.870;2022-09-03T13:01:05;4.15;;;1.40;;
71360;SDS011;59166;48.908;1.870;2022-09-03T13:06:09;4.72;;;1.58;;
71360;SDS011;59166;48.908;1.870;2022-09-03T13:11:15;5.07;;;1.80;;
71360;SDS011;59166;48.908;1.870;2022-09-03T13:16:27;7.90;;;2.00;;
71360;SDS011;59166;48.908;1.870;2022-09-03T13:21:54;4.85;;;1.90;;
71360;SDS011;59166;48.908;1.870;2022-09-03T13:27:08;4.77;;;1.80;;
71360;SDS011;59166;48.908;1.870;2022-09-03T13:32:22;4.10;;;1.80;;
71360;SDS011;59166;48.908;1.870;2022-09-03T13:37:31;6.55;;;1.80;;
71360;SDS011;59166;48.908;1.870;2022-09-03T13:42:39;6.55;;;2.00;;
71360;SDS011;59166;48.908;1.870;2022-09-03T13:47:45;5.30;;;1.73;;
71360;SDS011;59166;48.908;1.870;2022-09-03T13:52:52;4.15;;;1.67;;
71360;SDS011;59166;48.908;1.870;2022-09-03T13:57:58;5.55;;;1.77;;
71360;SDS011;59166;48.908;1.870;2022-09-03T14:03:06;3.90;;;1.60;;
71360;SDS011;59166;48.908;1.870;2022-09-03T14:08:19;5.15;;;1.90;;
71360;SDS011;59166;48.908;1.870;2022-09-03T14:13:29;5.75;;;1.85;;
71360;SDS011;59166;48.908;1.870;2022-09-03T14:18:43;4.90;;;2.00;;
71360;SDS011;59166;48.908;1.870;2022-09-03T14:23:54;5.30;;;2.00;;
71360;SDS011;59166;48.908;1.870;2022-09-03T14:29:05;7.15;;;2.42;;
71360;SDS011;59166;48.908;1.870;2022-09-03T14:34:14;5.47;;;2.28;;
71360;SDS011;59166;48.908;1.870;2022-09-03T14:39:28;6.10;;;2.20;;
71360;SDS011;59166;48.908;1.870;2022-09-03T14:44:36;6.20;;;2.20;;
71360;SDS011;59166;48.908;1.870;2022-09-03T14:55:27;4.67;;;2.00;;
71360;SDS011;59166;48.908;1.870;2022-09-03T15:00:41;5.93;;;1.90;;
71360;SDS011;59166;48.908;1.870;2022-09-03T15:11:23;5.37;;;2.03;;
71360;SDS011;59166;48.908;1.870;2022-09-03T15:16:32;5.47;;;2.20;;
71360;SDS011;59166;48.908;1.870;2022-09-03T15:21:46;6.35;;;2.30;;
71360;SDS011;59166;48.908;1.870;2022-09-03T15:27:01;6.47;;;2.65;;
71360;SDS011;59166;48.908;1.870;2022-09-03T15:32:15;6.00;;;2.40;;
71360;SDS011;59166;48.908;1.870;2022-09-03T15:37:34;6.70;;;2.58;;
71360;SDS011;59166;48.908;1.870;2022-09-03T15:42:38;7.07;;;2.55;;
71360;SDS011;59166;48.908;1.870;2022-09-03T15:47:49;6.10;;;2.63;;
71360;SDS011;59166;48.908;1.870;2022-09-03T15:52:54;6.07;;;2.30;;
71360;SDS011;59166;48.908;1.870;2022-09-03T15:58:03;6.20;;;2.05;;
71360;SDS011;59166;48.908;1.870;2022-09-03T16:03:09;6.70;;;2.30;;
71360;SDS011;59166;48.908;1.870;2022-09-03T16:08:16;7.53;;;2.55;;
71360;SDS011;59166;48.908;1.870;2022-09-03T16:13:33;6.53;;;2.63;;
71360;SDS011;59166;48.908;1.870;2022-09-03T16:18:54;9.20;;;3.00;;
71360;SDS011;59166;48.908;1.870;2022-09-03T16:23:59;6.87;;;3.00;;
71360;SDS011;59166;48.908;1.870;2022-09-03T16:29:06;6.45;;;2.80;;
71360;SDS011;59166;48.908;1.870;2022-09-03T16:34:14;6.85;;;3.00;;
71360;SDS011;59166;48.908;1.870;2022-09-03T16:39:24;6.40;;;2.90;;
71360;SDS011;59166;48.908;1.870;2022-09-03T16:44:42;6.75;;;2.88;;
71360;SDS011;59166;48.908;1.870;2022-09-03T16:49:55;10.15;;;3.10;;
71360;SDS011;59166;48.908;1.870;2022-09-03T16:55:07;7.27;;;3.23;;
71360;SDS011;59166;48.908;1.870;2022-09-03T17:00:16;8.00;;;3.30;;
71360;SDS011;59166;48.908;1.870;2022-09-03T17:05:28;7.97;;;3.58;;
71360;SDS011;59166;48.908;1.870;2022-09-03T17:10:50;7.65;;;3.60;;
71360;SDS011;59166;48.908;1.870;2022-09-03T17:16:01;7.57;;;3.73;;
71360;SDS011;59166;48.908;1.870;2022-09-03T17:21:18;8.52;;;3.92;;
71360;SDS011;59166;48.908;1.870;2022-09-03T17:26:33;7.25;;;3.72;;
71360;SDS011;59166;48.908;1.870;2022-09-03T17:31:40;7.23;;;3.70;;
71360;SDS011;59166;48.908;1.870;2022-09-03T17:36:58;8.57;;;3.90;;
71360;SDS011;59166;48.908;1.870;2022-09-03T17:42:11;10.23;;;3.90;;
71360;SDS011;59166;48.908;1.870;2022-09-03T17:47:26;7.57;;;3.60;;
71360;SDS011;59166;48.908;1.870;2022-09-03T17:52:40;7.57;;;3.90;;
71360;SDS011;59166;48.908;1.870;2022-09-03T17:57:45;7.65;;;3.75;;
71360;SDS011;59166;48.908;1.870;2022-09-03T18:02:50;8.02;;;4.00;;
71360;SDS011;59166;48.908;1.870;2022-09-03T18:07:59;7.80;;;3.80;;
71360;SDS011;59166;48.908;1.870;2022-09-03T18:13:10;10.95;;;4.22;;
71360;SDS011;59166;48.908;1.870;2022-09-03T18:18:18;8.60;;;4.07;;
71360;SDS011;59166;48.908;1.870;2022-09-03T18:23:27;8.07;;;4.10;;
71360;SDS011;59166;48.908;1.870;2022-09-03T18:28:34;7.93;;;4.07;;
71360;SDS011;59166;48.908;1.870;2022-09-03T18:33:38;7.97;;;4.35;;
71360;SDS011;59166;48.908;1.870;2022-09-03T18:38:40;9.13;;;4.60;;
71360;SDS011;59166;48.908;1.870;2022-09-03T18:43:42;8.15;;;4.30;;
71360;SDS011;59166;48.908;1.870;2022-09-03T18:48:53;8.03;;;4.13;;
71360;SDS011;59166;48.908;1.870;2022-09-03T18:54:06;9.02;;;4.53;;
71360;SDS011;59166;48.908;1.870;2022-09-03T18:59:22;8.63;;;4.50;;
71360;SDS011;59166;48.908;1.870;2022-09-03T19:04:42;9.27;;;4.40;;
71360;SDS011;59166;48.908;1.870;2022-09-03T19:10:07;8.47;;;4.33;;
71360;SDS011;59166;48.908;1.870;2022-09-03T19:15:12;8.57;;;4.50;;
71360;SDS011;59166;48.908;1.870;2022-09-03T19:20:20;8.55;;;4.63;;
71360;SDS011;59166;48.908;1.870;2022-09-03T19:25:29;8.70;;;4.40;;
71360;SDS011;59166;48.908;1.870;2022-09-03T19:30:32;8.98;;;4.47;;
71360;SDS011;59166;48.908;1.870;2022-09-03T19:35:45;9.23;;;4.63;;
71360;SDS011;59166;48.908;1.870;2022-09-03T19:41:00;9.80;;;4.50;;
71360;SDS011;59166;48.908;1.870;2022-09-03T19:46:18;7.80;;;4.22;;
71360;SDS011;59166;48.908;1.870;2022-09-03T19:51:31;8.50;;;4.68;;
71360;SDS011;59166;48.908;1.870;2022-09-03T19:56:39;8.40;;;4.20;;
71360;SDS011;59166;48.908;1.870;2022-09-03T20:01:41;8.87;;;4.73;;
71360;SDS011;59166;48.908;1.870;2022-09-03T20:06:45;10.48;;;4.60;;
71360;SDS011;59166;48.908;1.870;2022-09-03T20:11:48;9.68;;;4.45;;
71360;SDS011;59166;48.908;1.870;2022-09-03T20:16:55;8.33;;;4.30;;
71360;SDS011;59166;48.908;1.870;2022-09-03T20:22:06;8.32;;;4.00;;
71360;SDS011;59166;48.908;1.870;2022-09-03T20:27:19;7.65;;;4.07;;
71360;SDS011;59166;48.908;1.870;2022-09-03T20:32:43;8.37;;;4.40;;
71360;SDS011;59166;48.908;1.870;2022-09-03T20:38:14;8.50;;;4.35;;
71360;SDS011;59166;48.908;1.870;2022-09-03T20:43:35;9.95;;;4.15;;
71360;SDS011;59166;48.908;1.870;2022-09-03T20:48:50;8.07;;;4.43;;
71360;SDS011;59166;48.908;1.870;2022-09-03T20:54:03;8.30;;;4.60;;
71360;SDS011;59166;48.908;1.870;2022-09-03T20:59:14;10.30;;;4.65;;
71360;SDS011;59166;48.908;1.870;2022-09-03T21:04:31;8.35;;;4.40;;
71360;SDS011;59166;48.908;1.870;2022-09-03T21:09:49;8.43;;;4.20;;
71360;SDS011;59166;48.908;1.870;2022-09-03T21:14:59;8.00;;;4.50;;
71360;SDS011;59166;48.908;1.870;2022-09-03T21:20:12;10.13;;;4.65;;
71360;SDS011;59166;48.908;1.870;2022-09-03T21:25:22;9.30;;;4.70;;
71360;SDS011;59166;48.908;1.870;2022-09-03T21:30:30;9.25;;;4.85;;
71360;SDS011;59166;48.908;1.870;2022-09-03T21:35:37;9.55;;;4.78;;
71360;SDS011;59166;48.908;1.870;2022-09-03T21:40:46;8.53;;;4.70;;
71360;SDS011;59166;48.908;1.870;2022-09-03T21:45:57;10.73;;;4.67;;
71360;SDS011;59166;48.908;1.870;2022-09-03T21:51:03;8.25;;;4.63;;
71360;SDS011;59166;48.908;1.870;2022-09-03T21:56:29;8.65;;;4.50;;
71360;SDS011;59166;48.908;1.870;2022-09-03T22:01:55;8.77;;;4.40;;
71360;SDS011;59166;48.908;1.870;2022-09-03T22:07:05;8.63;;;4.53;;
71360;SDS011;59166;48.908;1.870;2022-09-03T22:12:15;8.65;;;4.30;;
71360;SDS011;59166;48.908;1.870;2022-09-03T22:17:24;8.03;;;4.50;;
71360;SDS011;59166;48.908;1.870;2022-09-03T22:22:36;8.50;;;4.32;;
71360;SDS011;59166;48.908;1.870;2022-09-03T22:33:23;9.13;;;4.60;;
71360;SDS011;59166;48.908;1.870;2022-09-03T22:38:42;10.87;;;4.80;;
71360;SDS011;59166;48.908;1.870;2022-09-03T22:44:00;10.23;;;5.55;;
71360;SDS011;59166;48.908;1.870;2022-09-03T22:49:30;10.15;;;5.15;;
71360;SDS011;59166;48.908;1.870;2022-09-03T23:00:13;10.05;;;5.22;;
71360;SDS011;59166;48.908;1.870;2022-09-03T23:05:42;11.50;;;5.47;;
71360;SDS011;59166;48.908;1.870;2022-09-03T23:11:24;10.40;;;5.70;;
71360;SDS011;59166;48.908;1.870;2022-09-03T23:22:04;11.63;;;6.03;;
71360;SDS011;59166;48.908;1.870;2022-09-03T23:27:09;11.83;;;5.70;;
71360;SDS011;59166;48.908;1.870;2022-09-03T23:32:15;10.07;;;5.43;;
71360;SDS011;59166;48.908;1.870;2022-09-03T23:37:24;9.77;;;5.80;;
71360;SDS011;59166;48.908;1.870;2022-09-03T23:42:40;9.83;;;5.60;;
71360;SDS011;59166;48.908;1.870;2022-09-03T23:47:58;10.30;;;5.63;;
71360;SDS011;59166;48.908;1.870;2022-09-03T23:53:17;10.10;;;5.70;;
71360;SDS011;59166;48.908;1.870;2022-09-03T23:58:33;10.90;;;5.50;;
